sensor_id;sensor_type;location;lat;lon;timestamp;P1;durP1;ratioP1;P2;durP2;ratioP2
10805;SDS011;5455;53.224;6.000;2023-09-12T00:02:14;19.93;;;13.27;;
10805;SDS011;5455;53.224;6.000;2023-09-12T00:04:41;19.83;;;12.03;;
10805;SDS011;5455;53.224;6.000;2023-09-12T00:07:08;18.17;;;11.87;;
10805;SDS011;5455;53.224;6.000;2023-09-12T00:09:35;19.03;;;12.73;;
10805;SDS011;5455;53.224;6.000;2023-09-12T00:12:03;20.67;;;12.87;;
10805;SDS011;5455;53.224;6.000;2023-09-12T00:14:30;16.90;;;11.90;;
10805;SDS011;5455;53.224;6.000;2023-09-12T00:16:57;19.37;;;13.00;;
10805;SDS011;5455;53.224;6.000;2023-09-12T00:19:24;17.67;;;12.50;;
10805;SDS011;5455;53.224;6.000;2023-09-12T00:21:51;18.60;;;12.30;;
10805;SDS011;5455;53.224;6.000;2023-09-12T00:24:19;19.93;;;12.70;;
10805;SDS011;5455;53.224;6.000;2023-09-12T00:26:46;19.20;;;12.93;;
10805;SDS011;5455;53.224;6.000;2023-09-12T00:29:13;22.13;;;13.07;;
10805;SDS011;5455;53.224;6.000;2023-09-12T00:31:40;16.37;;;12.27;;
10805;SDS011;5455;53.224;6.000;2023-09-12T00:34:07;19.63;;;12.43;;
10805;SDS011;5455;53.224;6.000;2023-09-12T00:36:35;18.40;;;12.97;;
10805;SDS011;5455;53.224;6.000;2023-09-12T00:39:04;17.47;;;12.03;;
10805;SDS011;5455;53.224;6.000;2023-09-12T00:41:31;18.90;;;13.27;;
10805;SDS011;5455;53.224;6.000;2023-09-12T00:43:58;19.90;;;13.50;;
10805;SDS011;5455;53.224;6.000;2023-09-12T00:46:26;18.40;;;12.67;;
10805;SDS011;5455;53.224;6.000;2023-09-12T00:48:55;18.70;;;12.63;;
10805;SDS011;5455;53.224;6.000;2023-09-12T00:51:25;18.57;;;12.57;;
10805;SDS011;5455;53.224;6.000;2023-09-12T00:53:52;21.03;;;12.77;;
10805;SDS011;5455;53.224;6.000;2023-09-12T00:56:22;17.63;;;11.87;;
10805;SDS011;5455;53.224;6.000;2023-09-12T00:58:49;19.27;;;13.10;;
10805;SDS011;5455;53.224;6.000;2023-09-12T01:01:18;18.97;;;12.27;;
10805;SDS011;5455;53.224;6.000;2023-09-12T01:03:48;17.30;;;12.20;;
10805;SDS011;5455;53.224;6.000;2023-09-12T01:06:16;22.67;;;13.50;;
10805;SDS011;5455;53.224;6.000;2023-09-12T01:08:46;19.13;;;12.83;;
10805;SDS011;5455;53.224;6.000;2023-09-12T01:11:13;19.47;;;12.83;;
10805;SDS011;5455;53.224;6.000;2023-09-12T01:13:40;20.70;;;12.90;;
10805;SDS011;5455;53.224;6.000;2023-09-12T01:16:07;19.10;;;13.13;;
10805;SDS011;5455;53.224;6.000;2023-09-12T01:18:34;19.63;;;13.03;;
10805;SDS011;5455;53.224;6.000;2023-09-12T01:28:57;18.07;;;12.63;;
10805;SDS011;5455;53.224;6.000;2023-09-12T01:31:26;19.17;;;12.73;;
10805;SDS011;5455;53.224;6.000;2023-09-12T01:33:55;18.57;;;12.40;;
10805;SDS011;5455;53.224;6.000;2023-09-12T01:36:34;20.13;;;13.27;;
10805;SDS011;5455;53.224;6.000;2023-09-12T01:39:01;20.07;;;13.07;;
10805;SDS011;5455;53.224;6.000;2023-09-12T01:41:28;20.63;;;13.13;;
10805;SDS011;5455;53.224;6.000;2023-09-12T01:43:59;20.33;;;13.17;;
10805;SDS011;5455;53.224;6.000;2023-09-12T01:46:27;19.00;;;12.13;;
10805;SDS011;5455;53.224;6.000;2023-09-12T01:48:55;16.63;;;11.90;;
10805;SDS011;5455;53.224;6.000;2023-09-12T01:51:24;21.67;;;13.10;;
10805;SDS011;5455;53.224;6.000;2023-09-12T01:53:52;16.90;;;12.13;;
10805;SDS011;5455;53.224;6.000;2023-09-12T01:56:21;16.90;;;11.57;;
10805;SDS011;5455;53.224;6.000;2023-09-12T01:58:48;17.23;;;11.77;;
10805;SDS011;5455;53.224;6.000;2023-09-12T02:01:15;16.23;;;10.97;;
10805;SDS011;5455;53.224;6.000;2023-09-12T02:03:42;17.13;;;11.67;;
10805;SDS011;5455;53.224;6.000;2023-09-12T02:06:09;14.57;;;10.77;;
10805;SDS011;5455;53.224;6.000;2023-09-12T02:08:36;15.87;;;10.77;;
10805;SDS011;5455;53.224;6.000;2023-09-12T02:11:03;14.90;;;10.70;;
10805;SDS011;5455;53.224;6.000;2023-09-12T02:13:30;17.37;;;11.23;;
10805;SDS011;5455;53.224;6.000;2023-09-12T02:16:00;16.03;;;11.00;;
10805;SDS011;5455;53.224;6.000;2023-09-12T02:18:30;18.53;;;11.60;;
10805;SDS011;5455;53.224;6.000;2023-09-12T02:21:00;14.90;;;11.43;;
10805;SDS011;5455;53.224;6.000;2023-09-12T02:23:27;16.27;;;10.93;;
10805;SDS011;5455;53.224;6.000;2023-09-12T02:25:55;14.03;;;10.43;;
10805;SDS011;5455;53.224;6.000;2023-09-12T02:28:23;16.00;;;11.07;;
10805;SDS011;5455;53.224;6.000;2023-09-12T02:30:50;18.27;;;11.40;;
10805;SDS011;5455;53.224;6.000;2023-09-12T02:33:17;14.97;;;10.67;;
10805;SDS011;5455;53.224;6.000;2023-09-12T02:35:44;16.87;;;11.90;;
10805;SDS011;5455;53.224;6.000;2023-09-12T02:38:11;15.67;;;11.13;;
10805;SDS011;5455;53.224;6.000;2023-09-12T02:40:38;15.37;;;11.30;;
10805;SDS011;5455;53.224;6.000;2023-09-12T02:43:05;16.63;;;11.63;;
10805;SDS011;5455;53.224;6.000;2023-09-12T02:45:33;16.13;;;12.10;;
10805;SDS011;5455;53.224;6.000;2023-09-12T02:48:00;17.73;;;11.57;;
10805;SDS011;5455;53.224;6.000;2023-09-12T02:50:27;18.40;;;12.10;;
10805;SDS011;5455;53.224;6.000;2023-09-12T02:52:54;18.20;;;12.10;;
10805;SDS011;5455;53.224;6.000;2023-09-12T02:55:21;19.33;;;12.33;;
10805;SDS011;5455;53.224;6.000;2023-09-12T02:57:48;22.13;;;12.70;;
10805;SDS011;5455;53.224;6.000;2023-09-12T03:00:15;16.80;;;12.23;;
10805;SDS011;5455;53.224;6.000;2023-09-12T03:02:42;22.63;;;13.20;;
10805;SDS011;5455;53.224;6.000;2023-09-12T03:05:10;17.50;;;11.50;;
10805;SDS011;5455;53.224;6.000;2023-09-12T03:07:37;18.23;;;12.10;;
10805;SDS011;5455;53.224;6.000;2023-09-12T03:10:04;16.87;;;11.70;;
10805;SDS011;5455;53.224;6.000;2023-09-12T03:12:31;17.47;;;12.33;;
10805;SDS011;5455;53.224;6.000;2023-09-12T03:14:58;18.77;;;12.50;;
10805;SDS011;5455;53.224;6.000;2023-09-12T03:17:25;17.17;;;12.47;;
10805;SDS011;5455;53.224;6.000;2023-09-12T03:19:54;16.97;;;11.93;;
10805;SDS011;5455;53.224;6.000;2023-09-12T03:22:21;17.07;;;12.77;;
10805;SDS011;5455;53.224;6.000;2023-09-12T03:24:49;16.77;;;12.30;;
10805;SDS011;5455;53.224;6.000;2023-09-12T03:27:16;18.07;;;12.10;;
10805;SDS011;5455;53.224;6.000;2023-09-12T03:29:46;15.77;;;12.00;;
10805;SDS011;5455;53.224;6.000;2023-09-12T03:32:13;16.30;;;12.23;;
10805;SDS011;5455;53.224;6.000;2023-09-12T03:34:41;15.53;;;11.17;;
10805;SDS011;5455;53.224;6.000;2023-09-12T03:37:08;16.17;;;11.30;;
10805;SDS011;5455;53.224;6.000;2023-09-12T03:39:35;17.93;;;12.20;;
10805;SDS011;5455;53.224;6.000;2023-09-12T03:42:02;17.27;;;11.93;;
10805;SDS011;5455;53.224;6.000;2023-09-12T03:44:29;16.40;;;11.13;;
10805;SDS011;5455;53.224;6.000;2023-09-12T03:46:56;16.43;;;11.30;;
10805;SDS011;5455;53.224;6.000;2023-09-12T03:49:24;15.37;;;11.43;;
10805;SDS011;5455;53.224;6.000;2023-09-12T03:51:51;16.47;;;12.07;;
10805;SDS011;5455;53.224;6.000;2023-09-12T03:54:18;18.93;;;11.73;;
10805;SDS011;5455;53.224;6.000;2023-09-12T03:56:46;16.07;;;11.37;;
10805;SDS011;5455;53.224;6.000;2023-09-12T03:59:13;17.90;;;12.33;;
10805;SDS011;5455;53.224;6.000;2023-09-12T04:01:40;18.50;;;11.97;;
10805;SDS011;5455;53.224;6.000;2023-09-12T04:04:07;16.60;;;11.77;;
10805;SDS011;5455;53.224;6.000;2023-09-12T04:06:34;18.20;;;12.50;;
10805;SDS011;5455;53.224;6.000;2023-09-12T04:09:01;17.03;;;12.10;;
10805;SDS011;5455;53.224;6.000;2023-09-12T04:11:29;16.50;;;11.53;;
10805;SDS011;5455;53.224;6.000;2023-09-12T04:14:12;17.90;;;12.23;;
10805;SDS011;5455;53.224;6.000;2023-09-12T04:16:40;15.23;;;11.37;;
10805;SDS011;5455;53.224;6.000;2023-09-12T04:19:13;16.43;;;12.37;;
10805;SDS011;5455;53.224;6.000;2023-09-12T04:22:00;17.17;;;11.70;;
10805;SDS011;5455;53.224;6.000;2023-09-12T04:24:41;15.87;;;11.57;;
10805;SDS011;5455;53.224;6.000;2023-09-12T04:27:08;15.67;;;11.63;;
10805;SDS011;5455;53.224;6.000;2023-09-12T04:29:35;17.70;;;13.00;;
10805;SDS011;5455;53.224;6.000;2023-09-12T04:32:04;16.40;;;12.63;;
10805;SDS011;5455;53.224;6.000;2023-09-12T04:34:33;16.00;;;11.50;;
10805;SDS011;5455;53.224;6.000;2023-09-12T04:37:00;16.60;;;11.90;;
10805;SDS011;5455;53.224;6.000;2023-09-12T04:39:30;15.93;;;11.90;;
10805;SDS011;5455;53.224;6.000;2023-09-12T04:41:57;18.57;;;12.77;;
10805;SDS011;5455;53.224;6.000;2023-09-12T04:44:24;22.53;;;13.43;;
10805;SDS011;5455;53.224;6.000;2023-09-12T04:46:51;22.30;;;14.27;;
10805;SDS011;5455;53.224;6.000;2023-09-12T04:49:18;20.07;;;13.80;;
10805;SDS011;5455;53.224;6.000;2023-09-12T04:51:46;25.90;;;15.47;;
10805;SDS011;5455;53.224;6.000;2023-09-12T04:54:13;25.50;;;15.93;;
10805;SDS011;5455;53.224;6.000;2023-09-12T04:56:39;26.87;;;16.73;;
10805;SDS011;5455;53.224;6.000;2023-09-12T04:59:06;25.73;;;16.07;;
10805;SDS011;5455;53.224;6.000;2023-09-12T05:01:34;26.30;;;16.60;;
10805;SDS011;5455;53.224;6.000;2023-09-12T05:04:01;26.50;;;17.10;;
10805;SDS011;5455;53.224;6.000;2023-09-12T05:06:29;26.47;;;16.97;;
10805;SDS011;5455;53.224;6.000;2023-09-12T05:08:57;25.73;;;16.77;;
10805;SDS011;5455;53.224;6.000;2023-09-12T05:11:24;28.00;;;16.30;;
10805;SDS011;5455;53.224;6.000;2023-09-12T05:13:51;24.47;;;15.83;;
10805;SDS011;5455;53.224;6.000;2023-09-12T05:16:19;22.83;;;14.63;;
10805;SDS011;5455;53.224;6.000;2023-09-12T05:18:46;21.20;;;14.07;;
10805;SDS011;5455;53.224;6.000;2023-09-12T05:21:15;18.73;;;13.20;;
10805;SDS011;5455;53.224;6.000;2023-09-12T05:23:42;19.17;;;13.50;;
10805;SDS011;5455;53.224;6.000;2023-09-12T05:26:09;17.83;;;11.60;;
10805;SDS011;5455;53.224;6.000;2023-09-12T05:28:36;19.03;;;14.23;;
10805;SDS011;5455;53.224;6.000;2023-09-12T05:31:04;18.80;;;13.57;;
10805;SDS011;5455;53.224;6.000;2023-09-12T05:33:33;17.73;;;12.37;;
10805;SDS011;5455;53.224;6.000;2023-09-12T05:36:00;19.10;;;12.47;;
10805;SDS011;5455;53.224;6.000;2023-09-12T05:38:28;18.37;;;12.23;;
10805;SDS011;5455;53.224;6.000;2023-09-12T05:40:55;17.83;;;12.60;;
10805;SDS011;5455;53.224;6.000;2023-09-12T05:43:23;19.47;;;13.43;;
10805;SDS011;5455;53.224;6.000;2023-09-12T05:45:50;19.10;;;12.90;;
10805;SDS011;5455;53.224;6.000;2023-09-12T05:48:18;17.17;;;12.87;;
10805;SDS011;5455;53.224;6.000;2023-09-12T05:50:45;20.27;;;12.63;;
10805;SDS011;5455;53.224;6.000;2023-09-12T05:53:13;16.97;;;12.10;;
10805;SDS011;5455;53.224;6.000;2023-09-12T05:55:40;19.87;;;12.80;;
10805;SDS011;5455;53.224;6.000;2023-09-12T05:58:07;17.67;;;12.73;;
10805;SDS011;5455;53.224;6.000;2023-09-12T06:00:35;16.27;;;12.07;;
10805;SDS011;5455;53.224;6.000;2023-09-12T06:03:02;17.00;;;11.57;;
10805;SDS011;5455;53.224;6.000;2023-09-12T06:05:29;19.23;;;13.70;;
10805;SDS011;5455;53.224;6.000;2023-09-12T06:07:56;17.13;;;12.70;;
10805;SDS011;5455;53.224;6.000;2023-09-12T06:10:23;20.77;;;13.93;;
10805;SDS011;5455;53.224;6.000;2023-09-12T06:12:50;19.00;;;13.40;;
10805;SDS011;5455;53.224;6.000;2023-09-12T06:15:17;20.17;;;13.60;;
10805;SDS011;5455;53.224;6.000;2023-09-12T06:17:45;19.03;;;13.07;;
10805;SDS011;5455;53.224;6.000;2023-09-12T06:20:12;21.67;;;15.03;;
10805;SDS011;5455;53.224;6.000;2023-09-12T06:22:38;22.17;;;15.33;;
10805;SDS011;5455;53.224;6.000;2023-09-12T06:25:08;23.03;;;14.77;;
10805;SDS011;5455;53.224;6.000;2023-09-12T06:27:36;22.87;;;15.20;;
10805;SDS011;5455;53.224;6.000;2023-09-12T06:30:03;22.83;;;15.47;;
10805;SDS011;5455;53.224;6.000;2023-09-12T06:32:30;23.70;;;15.37;;
10805;SDS011;5455;53.224;6.000;2023-09-12T06:34:57;24.10;;;15.77;;
10805;SDS011;5455;53.224;6.000;2023-09-12T06:37:24;24.27;;;15.70;;
10805;SDS011;5455;53.224;6.000;2023-09-12T06:39:50;25.10;;;16.50;;
10805;SDS011;5455;53.224;6.000;2023-09-12T06:42:18;27.30;;;16.27;;
10805;SDS011;5455;53.224;6.000;2023-09-12T06:44:45;26.53;;;16.53;;
10805;SDS011;5455;53.224;6.000;2023-09-12T06:47:12;25.57;;;16.50;;
10805;SDS011;5455;53.224;6.000;2023-09-12T06:49:39;26.77;;;17.00;;
10805;SDS011;5455;53.224;6.000;2023-09-12T06:52:06;27.37;;;17.50;;
10805;SDS011;5455;53.224;6.000;2023-09-12T06:54:34;29.37;;;17.23;;
10805;SDS011;5455;53.224;6.000;2023-09-12T06:57:01;27.63;;;17.63;;
10805;SDS011;5455;53.224;6.000;2023-09-12T06:59:28;28.17;;;17.33;;
10805;SDS011;5455;53.224;6.000;2023-09-12T07:01:55;28.37;;;17.47;;
10805;SDS011;5455;53.224;6.000;2023-09-12T07:04:22;30.97;;;18.00;;
10805;SDS011;5455;53.224;6.000;2023-09-12T07:06:50;30.70;;;17.70;;
10805;SDS011;5455;53.224;6.000;2023-09-12T07:09:18;28.63;;;17.67;;
10805;SDS011;5455;53.224;6.000;2023-09-12T07:11:46;31.93;;;18.03;;
10805;SDS011;5455;53.224;6.000;2023-09-12T07:14:14;28.83;;;16.27;;
10805;SDS011;5455;53.224;6.000;2023-09-12T07:16:41;26.30;;;15.97;;
10805;SDS011;5455;53.224;6.000;2023-09-12T07:19:08;31.50;;;17.07;;
10805;SDS011;5455;53.224;6.000;2023-09-12T07:21:36;28.63;;;17.53;;
10805;SDS011;5455;53.224;6.000;2023-09-12T07:24:04;26.93;;;16.23;;
10805;SDS011;5455;53.224;6.000;2023-09-12T07:26:32;28.67;;;16.37;;
10805;SDS011;5455;53.224;6.000;2023-09-12T07:28:59;30.43;;;17.00;;
10805;SDS011;5455;53.224;6.000;2023-09-12T07:31:29;27.90;;;16.63;;
10805;SDS011;5455;53.224;6.000;2023-09-12T07:33:56;28.00;;;17.13;;
10805;SDS011;5455;53.224;6.000;2023-09-12T07:36:23;31.77;;;16.33;;
10805;SDS011;5455;53.224;6.000;2023-09-12T07:38:50;29.63;;;16.00;;
10805;SDS011;5455;53.224;6.000;2023-09-12T07:41:17;31.20;;;17.00;;
10805;SDS011;5455;53.224;6.000;2023-09-12T07:43:45;28.53;;;16.77;;
10805;SDS011;5455;53.224;6.000;2023-09-12T07:46:12;30.10;;;17.47;;
10805;SDS011;5455;53.224;6.000;2023-09-12T07:48:40;34.93;;;20.10;;
10805;SDS011;5455;53.224;6.000;2023-09-12T07:51:16;29.67;;;18.33;;
10805;SDS011;5455;53.224;6.000;2023-09-12T07:53:46;31.43;;;18.20;;
10805;SDS011;5455;53.224;6.000;2023-09-12T07:56:13;30.43;;;16.97;;
10805;SDS011;5455;53.224;6.000;2023-09-12T07:58:40;30.60;;;17.70;;
10805;SDS011;5455;53.224;6.000;2023-09-12T08:01:07;30.47;;;17.47;;
10805;SDS011;5455;53.224;6.000;2023-09-12T08:03:35;31.53;;;16.23;;
10805;SDS011;5455;53.224;6.000;2023-09-12T08:06:04;31.30;;;19.23;;
10805;SDS011;5455;53.224;6.000;2023-09-12T08:08:31;31.77;;;17.10;;
10805;SDS011;5455;53.224;6.000;2023-09-12T08:10:58;28.73;;;16.97;;
10805;SDS011;5455;53.224;6.000;2023-09-12T08:13:28;27.00;;;15.40;;
10805;SDS011;5455;53.224;6.000;2023-09-12T08:15:56;27.67;;;17.23;;
10805;SDS011;5455;53.224;6.000;2023-09-12T08:18:26;26.27;;;15.53;;
10805;SDS011;5455;53.224;6.000;2023-09-12T08:20:55;28.73;;;16.00;;
10805;SDS011;5455;53.224;6.000;2023-09-12T08:23:22;25.27;;;15.20;;
10805;SDS011;5455;53.224;6.000;2023-09-12T08:25:49;28.67;;;16.30;;
10805;SDS011;5455;53.224;6.000;2023-09-12T08:28:16;28.87;;;16.13;;
10805;SDS011;5455;53.224;6.000;2023-09-12T08:30:46;25.40;;;15.43;;
10805;SDS011;5455;53.224;6.000;2023-09-12T08:33:14;23.37;;;15.10;;
10805;SDS011;5455;53.224;6.000;2023-09-12T08:35:41;26.80;;;16.13;;
10805;SDS011;5455;53.224;6.000;2023-09-12T08:38:08;29.30;;;16.63;;
10805;SDS011;5455;53.224;6.000;2023-09-12T08:40:35;28.20;;;16.47;;
10805;SDS011;5455;53.224;6.000;2023-09-12T08:43:03;28.47;;;15.97;;
10805;SDS011;5455;53.224;6.000;2023-09-12T08:45:30;26.00;;;15.63;;
10805;SDS011;5455;53.224;6.000;2023-09-12T08:48:00;24.77;;;15.77;;
10805;SDS011;5455;53.224;6.000;2023-09-12T08:50:30;28.33;;;16.07;;
10805;SDS011;5455;53.224;6.000;2023-09-12T08:52:59;27.57;;;16.67;;
10805;SDS011;5455;53.224;6.000;2023-09-12T08:55:34;28.37;;;16.80;;
10805;SDS011;5455;53.224;6.000;2023-09-12T08:58:04;27.50;;;14.53;;
10805;SDS011;5455;53.224;6.000;2023-09-12T09:00:32;27.40;;;17.10;;
10805;SDS011;5455;53.224;6.000;2023-09-12T09:03:00;25.53;;;14.33;;
10805;SDS011;5455;53.224;6.000;2023-09-12T09:05:29;25.33;;;14.47;;
10805;SDS011;5455;53.224;6.000;2023-09-12T09:07:57;27.97;;;14.77;;
10805;SDS011;5455;53.224;6.000;2023-09-12T09:10:25;29.93;;;15.63;;
10805;SDS011;5455;53.224;6.000;2023-09-12T09:13:15;24.10;;;14.63;;
10805;SDS011;5455;53.224;6.000;2023-09-12T09:15:43;18.83;;;12.97;;
10805;SDS011;5455;53.224;6.000;2023-09-12T09:18:10;26.73;;;13.93;;
10805;SDS011;5455;53.224;6.000;2023-09-12T09:20:40;25.37;;;12.30;;
10805;SDS011;5455;53.224;6.000;2023-09-12T09:23:12;21.07;;;11.63;;
10805;SDS011;5455;53.224;6.000;2023-09-12T09:25:39;21.80;;;11.83;;
10805;SDS011;5455;53.224;6.000;2023-09-12T09:28:18;21.50;;;10.93;;
10805;SDS011;5455;53.224;6.000;2023-09-12T09:30:47;30.77;;;16.93;;
10805;SDS011;5455;53.224;6.000;2023-09-12T09:33:15;20.80;;;10.97;;
10805;SDS011;5455;53.224;6.000;2023-09-12T09:35:45;20.83;;;11.47;;
10805;SDS011;5455;53.224;6.000;2023-09-12T09:38:12;21.63;;;12.60;;
10805;SDS011;5455;53.224;6.000;2023-09-12T09:40:43;17.30;;;10.17;;
10805;SDS011;5455;53.224;6.000;2023-09-12T09:43:11;28.07;;;12.57;;
10805;SDS011;5455;53.224;6.000;2023-09-12T09:45:44;19.77;;;11.17;;
10805;SDS011;5455;53.224;6.000;2023-09-12T09:48:19;20.27;;;11.07;;
10805;SDS011;5455;53.224;6.000;2023-09-12T09:50:50;14.90;;;8.57;;
10805;SDS011;5455;53.224;6.000;2023-09-12T09:53:29;15.93;;;9.03;;
10805;SDS011;5455;53.224;6.000;2023-09-12T09:58:51;15.00;;;8.97;;
10805;SDS011;5455;53.224;6.000;2023-09-12T10:01:20;16.17;;;9.30;;
10805;SDS011;5455;53.224;6.000;2023-09-12T10:03:58;13.87;;;9.27;;
10805;SDS011;5455;53.224;6.000;2023-09-12T10:06:27;14.60;;;7.30;;
10805;SDS011;5455;53.224;6.000;2023-09-12T10:08:56;11.97;;;7.90;;
10805;SDS011;5455;53.224;6.000;2023-09-12T10:11:27;13.73;;;8.03;;
10805;SDS011;5455;53.224;6.000;2023-09-12T10:13:57;10.87;;;7.23;;
10805;SDS011;5455;53.224;6.000;2023-09-12T10:16:29;12.07;;;6.70;;
10805;SDS011;5455;53.224;6.000;2023-09-12T10:19:10;14.27;;;6.97;;
10805;SDS011;5455;53.224;6.000;2023-09-12T10:24:43;12.50;;;7.07;;
10805;SDS011;5455;53.224;6.000;2023-09-12T10:27:12;11.17;;;6.57;;
10805;SDS011;5455;53.224;6.000;2023-09-12T10:29:40;10.70;;;6.47;;
10805;SDS011;5455;53.224;6.000;2023-09-12T10:32:07;10.57;;;6.30;;
10805;SDS011;5455;53.224;6.000;2023-09-12T10:34:35;12.30;;;6.23;;
10805;SDS011;5455;53.224;6.000;2023-09-12T10:37:04;9.83;;;6.23;;
10805;SDS011;5455;53.224;6.000;2023-09-12T10:39:32;14.10;;;8.70;;
10805;SDS011;5455;53.224;6.000;2023-09-12T10:42:01;20.10;;;11.20;;
10805;SDS011;5455;53.224;6.000;2023-09-12T10:44:30;14.60;;;8.63;;
10805;SDS011;5455;53.224;6.000;2023-09-12T10:46:58;13.00;;;7.93;;
10805;SDS011;5455;53.224;6.000;2023-09-12T10:49:26;12.27;;;8.30;;
10805;SDS011;5455;53.224;6.000;2023-09-12T10:51:53;16.07;;;8.20;;
10805;SDS011;5455;53.224;6.000;2023-09-12T10:54:25;14.87;;;8.30;;
10805;SDS011;5455;53.224;6.000;2023-09-12T10:57:05;15.13;;;8.00;;
10805;SDS011;5455;53.224;6.000;2023-09-12T10:59:34;11.97;;;6.57;;
10805;SDS011;5455;53.224;6.000;2023-09-12T11:04:55;10.23;;;5.70;;
10805;SDS011;5455;53.224;6.000;2023-09-12T11:12:45;10.17;;;7.07;;
10805;SDS011;5455;53.224;6.000;2023-09-12T11:15:20;11.03;;;7.73;;
10805;SDS011;5455;53.224;6.000;2023-09-12T11:17:49;11.97;;;7.40;;
10805;SDS011;5455;53.224;6.000;2023-09-12T11:20:25;12.73;;;8.60;;
10805;SDS011;5455;53.224;6.000;2023-09-12T11:22:53;19.90;;;13.53;;
10805;SDS011;5455;53.224;6.000;2023-09-12T11:25:24;14.93;;;8.60;;
10805;SDS011;5455;53.224;6.000;2023-09-12T11:30:21;8.70;;;6.60;;
10805;SDS011;5455;53.224;6.000;2023-09-12T11:32:50;9.80;;;6.87;;
10805;SDS011;5455;53.224;6.000;2023-09-12T11:35:24;11.93;;;7.40;;
10805;SDS011;5455;53.224;6.000;2023-09-12T11:37:54;10.07;;;6.60;;
10805;SDS011;5455;53.224;6.000;2023-09-12T11:40:26;10.90;;;6.80;;
10805;SDS011;5455;53.224;6.000;2023-09-12T11:43:17;11.53;;;6.17;;
10805;SDS011;5455;53.224;6.000;2023-09-12T11:45:47;11.97;;;6.60;;
10805;SDS011;5455;53.224;6.000;2023-09-12T11:48:15;9.43;;;6.80;;
10805;SDS011;5455;53.224;6.000;2023-09-12T11:50:42;8.77;;;6.47;;
10805;SDS011;5455;53.224;6.000;2023-09-12T11:53:09;12.23;;;7.53;;
10805;SDS011;5455;53.224;6.000;2023-09-12T11:55:42;9.10;;;6.10;;
10805;SDS011;5455;53.224;6.000;2023-09-12T11:58:11;9.30;;;6.10;;
10805;SDS011;5455;53.224;6.000;2023-09-12T12:00:45;12.20;;;6.40;;
10805;SDS011;5455;53.224;6.000;2023-09-12T12:03:15;11.03;;;6.33;;
10805;SDS011;5455;53.224;6.000;2023-09-12T12:05:43;6.87;;;5.43;;
10805;SDS011;5455;53.224;6.000;2023-09-12T12:08:10;7.40;;;5.20;;
10805;SDS011;5455;53.224;6.000;2023-09-12T12:10:57;9.47;;;5.13;;
10805;SDS011;5455;53.224;6.000;2023-09-12T12:13:27;8.90;;;5.70;;
10805;SDS011;5455;53.224;6.000;2023-09-12T12:16:17;8.00;;;4.87;;
10805;SDS011;5455;53.224;6.000;2023-09-12T12:18:44;8.43;;;5.30;;
10805;SDS011;5455;53.224;6.000;2023-09-12T12:21:11;6.20;;;4.87;;
10805;SDS011;5455;53.224;6.000;2023-09-12T12:23:38;8.87;;;4.90;;
10805;SDS011;5455;53.224;6.000;2023-09-12T12:26:07;7.20;;;4.83;;
10805;SDS011;5455;53.224;6.000;2023-09-12T12:28:35;10.13;;;5.20;;
10805;SDS011;5455;53.224;6.000;2023-09-12T12:31:02;6.77;;;4.53;;
10805;SDS011;5455;53.224;6.000;2023-09-12T12:33:30;5.73;;;4.10;;
10805;SDS011;5455;53.224;6.000;2023-09-12T12:36:17;5.73;;;4.43;;
10805;SDS011;5455;53.224;6.000;2023-09-12T12:38:45;5.43;;;4.23;;
10805;SDS011;5455;53.224;6.000;2023-09-12T12:41:23;7.83;;;4.00;;
10805;SDS011;5455;53.224;6.000;2023-09-12T12:43:59;6.53;;;4.27;;
10805;SDS011;5455;53.224;6.000;2023-09-12T12:46:30;7.90;;;3.50;;
10805;SDS011;5455;53.224;6.000;2023-09-12T12:48:57;5.13;;;3.70;;
10805;SDS011;5455;53.224;6.000;2023-09-12T12:51:24;5.90;;;3.00;;
10805;SDS011;5455;53.224;6.000;2023-09-12T12:53:53;4.70;;;3.17;;
10805;SDS011;5455;53.224;6.000;2023-09-12T12:56:21;4.27;;;3.23;;
10805;SDS011;5455;53.224;6.000;2023-09-12T12:58:57;9.00;;;3.37;;
10805;SDS011;5455;53.224;6.000;2023-09-12T13:01:29;6.00;;;3.20;;
10805;SDS011;5455;53.224;6.000;2023-09-12T13:03:56;4.57;;;3.13;;
10805;SDS011;5455;53.224;6.000;2023-09-12T13:06:23;4.50;;;3.17;;
10805;SDS011;5455;53.224;6.000;2023-09-12T13:08:52;7.37;;;3.30;;
10805;SDS011;5455;53.224;6.000;2023-09-12T13:11:19;6.27;;;3.23;;
10805;SDS011;5455;53.224;6.000;2023-09-12T13:13:47;5.87;;;3.53;;
10805;SDS011;5455;53.224;6.000;2023-09-12T13:16:18;3.77;;;2.90;;
10805;SDS011;5455;53.224;6.000;2023-09-12T13:18:45;3.87;;;2.93;;
10805;SDS011;5455;53.224;6.000;2023-09-12T13:21:12;5.00;;;2.67;;
10805;SDS011;5455;53.224;6.000;2023-09-12T13:23:39;4.47;;;3.03;;
10805;SDS011;5455;53.224;6.000;2023-09-12T13:26:07;4.97;;;3.43;;
10805;SDS011;5455;53.224;6.000;2023-09-12T13:28:36;6.13;;;3.03;;
10805;SDS011;5455;53.224;6.000;2023-09-12T13:31:04;4.53;;;2.63;;
10805;SDS011;5455;53.224;6.000;2023-09-12T13:33:31;5.63;;;3.00;;
10805;SDS011;5455;53.224;6.000;2023-09-12T13:35:58;5.03;;;2.80;;
10805;SDS011;5455;53.224;6.000;2023-09-12T13:38:25;4.73;;;2.73;;
10805;SDS011;5455;53.224;6.000;2023-09-12T13:40:52;6.40;;;3.07;;
10805;SDS011;5455;53.224;6.000;2023-09-12T13:43:19;4.97;;;2.90;;
10805;SDS011;5455;53.224;6.000;2023-09-12T13:45:47;7.67;;;3.13;;
10805;SDS011;5455;53.224;6.000;2023-09-12T13:48:14;4.97;;;2.63;;
10805;SDS011;5455;53.224;6.000;2023-09-12T13:50:41;4.93;;;2.63;;
10805;SDS011;5455;53.224;6.000;2023-09-12T13:53:11;4.43;;;2.47;;
10805;SDS011;5455;53.224;6.000;2023-09-12T13:55:38;5.27;;;2.70;;
10805;SDS011;5455;53.224;6.000;2023-09-12T13:58:25;5.27;;;2.67;;
10805;SDS011;5455;53.224;6.000;2023-09-12T14:01:06;7.10;;;2.50;;
10805;SDS011;5455;53.224;6.000;2023-09-12T14:03:34;4.87;;;2.20;;
10805;SDS011;5455;53.224;6.000;2023-09-12T14:06:01;3.53;;;2.30;;
10805;SDS011;5455;53.224;6.000;2023-09-12T14:08:29;6.70;;;2.20;;
10805;SDS011;5455;53.224;6.000;2023-09-12T14:10:56;3.73;;;2.43;;
10805;SDS011;5455;53.224;6.000;2023-09-12T14:13:23;5.30;;;2.10;;
10805;SDS011;5455;53.224;6.000;2023-09-12T14:15:50;4.57;;;2.47;;
10805;SDS011;5455;53.224;6.000;2023-09-12T14:18:18;5.83;;;2.10;;
10805;SDS011;5455;53.224;6.000;2023-09-12T14:20:48;3.20;;;2.20;;
10805;SDS011;5455;53.224;6.000;2023-09-12T14:23:16;2.87;;;1.60;;
10805;SDS011;5455;53.224;6.000;2023-09-12T14:25:43;5.00;;;2.40;;
10805;SDS011;5455;53.224;6.000;2023-09-12T14:28:12;4.17;;;1.90;;
10805;SDS011;5455;53.224;6.000;2023-09-12T14:30:41;3.43;;;1.80;;
10805;SDS011;5455;53.224;6.000;2023-09-12T14:33:11;2.53;;;1.90;;
10805;SDS011;5455;53.224;6.000;2023-09-12T14:35:43;3.20;;;1.70;;
10805;SDS011;5455;53.224;6.000;2023-09-12T14:38:11;3.17;;;1.90;;
10805;SDS011;5455;53.224;6.000;2023-09-12T14:40:38;2.47;;;1.70;;
10805;SDS011;5455;53.224;6.000;2023-09-12T14:43:10;4.40;;;2.37;;
10805;SDS011;5455;53.224;6.000;2023-09-12T14:45:37;5.10;;;1.90;;
10805;SDS011;5455;53.224;6.000;2023-09-12T14:48:05;2.60;;;2.07;;
10805;SDS011;5455;53.224;6.000;2023-09-12T14:50:34;5.60;;;2.00;;
10805;SDS011;5455;53.224;6.000;2023-09-12T14:53:10;3.50;;;1.93;;
10805;SDS011;5455;53.224;6.000;2023-09-12T14:55:40;3.07;;;2.03;;
10805;SDS011;5455;53.224;6.000;2023-09-12T14:58:07;5.63;;;1.77;;
10805;SDS011;5455;53.224;6.000;2023-09-12T15:00:35;5.20;;;2.00;;
10805;SDS011;5455;53.224;6.000;2023-09-12T15:03:03;1.93;;;1.73;;
10805;SDS011;5455;53.224;6.000;2023-09-12T15:05:30;3.77;;;1.90;;
10805;SDS011;5455;53.224;6.000;2023-09-12T15:07:57;2.97;;;1.73;;
10805;SDS011;5455;53.224;6.000;2023-09-12T15:10:24;2.50;;;1.70;;
10805;SDS011;5455;53.224;6.000;2023-09-12T15:12:51;2.77;;;1.63;;
10805;SDS011;5455;53.224;6.000;2023-09-12T15:15:20;2.37;;;1.60;;
10805;SDS011;5455;53.224;6.000;2023-09-12T15:17:47;2.63;;;2.00;;